sensor_id;sensor_type;location;lat;lon;timestamp;pressure;altitude;pressure_sealevel;temperature;humidity
21942;BME280;11135;54.192;15.670;2022-08-19T00:02:03;100978.13;;;25.48;62.53
21942;BME280;11135;54.192;15.670;2022-08-19T00:08:06;100974.66;;;25.54;62.00
21942;BME280;11135;54.192;15.670;2022-08-19T00:14:11;100982.06;;;25.37;63.19
21942;BME280;11135;54.192;15.670;2022-08-19T00:20:20;100981.59;;;25.50;62.62
21942;BME280;11135;54.192;15.670;2022-08-19T00:26:24;100992.25;;;25.55;62.85
21942;BME280;11135;54.192;15.670;2022-08-19T00:32:28;100988.91;;;25.43;63.30
21942;BME280;11135;54.192;15.670;2022-08-19T00:38:37;59315.84;;;-145.26;100.00
21942;BME280;11135;54.192;15.670;2022-08-19T00:44:45;59315.84;;;-145.26;100.00
21942;BME280;11135;54.192;15.670;2022-08-19T00:50:49;59315.84;;;-145.26;100.00
21942;BME280;11135;54.192;15.670;2022-08-19T00:56:54;59315.84;;;-145.26;100.00
21942;BME280;11135;54.192;15.670;2022-08-19T01:02:58;59315.84;;;-145.26;100.00
21942;BME280;11135;54.192;15.670;2022-08-19T01:09:02;59315.84;;;-145.26;100.00
21942;BME280;11135;54.192;15.670;2022-08-19T01:15:11;59315.84;;;-145.26;100.00
21942;BME280;11135;54.192;15.670;2022-08-19T01:21:20;59315.84;;;-145.26;100.00
21942;BME280;11135;54.192;15.670;2022-08-19T01:27:27;100988.91;;;25.43;63.30
21942;BME280;11135;54.192;15.670;2022-08-19T01:33:45;100964.97;;;25.32;64.16
21942;BME280;11135;54.192;15.670;2022-08-19T01:39:49;100959.75;;;25.37;63.93
21942;BME280;11135;54.192;15.670;2022-08-19T01:45:54;100960.81;;;25.36;63.58
21942;BME280;11135;54.192;15.670;2022-08-19T01:51:59;100943.75;;;25.39;63.52
21942;BME280;11135;54.192;15.670;2022-08-19T01:58:05;100942.00;;;25.38;63.89
21942;BME280;11135;54.192;15.670;2022-08-19T02:04:10;100939.22;;;25.38;63.83
21942;BME280;11135;54.192;15.670;2022-08-19T02:10:16;100939.03;;;25.40;63.28
21942;BME280;11135;54.192;15.670;2022-08-19T02:16:21;100916.81;;;25.48;63.23
21942;BME280;11135;54.192;15.670;2022-08-19T02:22:26;100922.38;;;25.48;63.27
21942;BME280;11135;54.192;15.670;2022-08-19T02:28:30;100922.72;;;25.45;63.55
21942;BME280;11135;54.192;15.670;2022-08-19T02:34:34;100913.16;;;25.47;62.84
21942;BME280;11135;54.192;15.670;2022-08-19T02:40:39;100896.09;;;25.51;62.85
21942;BME280;11135;54.192;15.670;2022-08-19T02:46:44;100891.91;;;25.46;62.87
21942;BME280;11135;54.192;15.670;2022-08-19T02:52:48;100900.25;;;25.46;62.94
21942;BME280;11135;54.192;15.670;2022-08-19T02:58:53;100905.50;;;25.50;63.10
21942;BME280;11135;54.192;15.670;2022-08-19T03:04:57;100900.78;;;25.50;62.37
21942;BME280;11135;54.192;15.670;2022-08-19T03:11:00;100902.19;;;25.54;62.38
21942;BME280;11135;54.192;15.670;2022-08-19T03:17:05;100891.06;;;25.62;62.12
21942;BME280;11135;54.192;15.670;2022-08-19T03:23:10;100883.84;;;25.69;62.10
21942;BME280;11135;54.192;15.670;2022-08-19T03:29:15;100888.81;;;26.16;60.63
21942;BME280;11135;54.192;15.670;2022-08-19T03:35:34;100886.44;;;25.71;61.67
21942;BME280;11135;54.192;15.670;2022-08-19T03:41:40;100892.03;;;25.71;60.68
21942;BME280;11135;54.192;15.670;2022-08-19T03:47:47;59315.84;;;-145.26;100.00
21942;BME280;11135;54.192;15.670;2022-08-19T03:53:52;59315.84;;;-145.26;100.00
21942;BME280;11135;54.192;15.670;2022-08-19T03:59:57;59315.84;;;-145.26;100.00
21942;BME280;11135;54.192;15.670;2022-08-19T04:06:16;59315.84;;;-145.26;100.00
21942;BME280;11135;54.192;15.670;2022-08-19T04:12:21;59315.84;;;-145.26;100.00
21942;BME280;11135;54.192;15.670;2022-08-19T04:18:25;59315.84;;;-145.26;100.00
21942;BME280;11135;54.192;15.670;2022-08-19T04:24:37;59315.84;;;-145.26;100.00
21942;BME280;11135;54.192;15.670;2022-08-19T04:30:44;59315.84;;;-145.26;100.00
21942;BME280;11135;54.192;15.670;2022-08-19T04:36:50;59315.84;;;-145.26;100.00
21942;BME280;11135;54.192;15.670;2022-08-19T04:42:54;59315.84;;;-145.26;100.00
21942;BME280;11135;54.192;15.670;2022-08-19T04:49:02;59315.84;;;-145.26;100.00
21942;BME280;11135;54.192;15.670;2022-08-19T04:55:14;59315.84;;;-145.26;100.00
21942;BME280;11135;54.192;15.670;2022-08-19T05:01:21;100885.94;;;25.75;62.33
21942;BME280;11135;54.192;15.670;2022-08-19T05:07:26;100884.34;;;25.73;62.85
21942;BME280;11135;54.192;15.670;2022-08-19T05:13:30;100888.13;;;25.64;63.21
21942;BME280;11135;54.192;15.670;2022-08-19T05:19:33;100882.38;;;25.65;63.35
21942;BME280;11135;54.192;15.670;2022-08-19T05:25:58;100880.31;;;25.67;63.79
21942;BME280;11135;54.192;15.670;2022-08-19T05:32:03;100884.53;;;25.71;63.62
21942;BME280;11135;54.192;15.670;2022-08-19T05:38:08;100897.25;;;25.74;63.52
21942;BME280;11135;54.192;15.670;2022-08-19T05:44:15;100902.31;;;25.70;63.56
21942;BME280;11135;54.192;15.670;2022-08-19T05:50:19;100908.22;;;25.75;63.39
21942;BME280;11135;54.192;15.670;2022-08-19T05:56:22;100901.97;;;25.73;63.69
21942;BME280;11135;54.192;15.670;2022-08-19T06:02:28;100886.44;;;25.79;63.28
21942;BME280;11135;54.192;15.670;2022-08-19T06:08:33;100893.47;;;25.83;63.00
21942;BME280;11135;54.192;15.670;2022-08-19T06:14:38;100894.69;;;25.89;63.14
21942;BME280;11135;54.192;15.670;2022-08-19T06:20:44;100884.06;;;25.92;63.19
21942;BME280;11135;54.192;15.670;2022-08-19T06:26:58;100888.09;;;25.98;62.74
21942;BME280;11135;54.192;15.670;2022-08-19T06:33:02;100891.56;;;26.00;63.55
21942;BME280;11135;54.192;15.670;2022-08-19T06:39:09;100873.44;;;26.04;63.14
21942;BME280;11135;54.192;15.670;2022-08-19T06:45:13;100880.25;;;26.10;62.95
21942;BME280;11135;54.192;15.670;2022-08-19T06:51:17;100861.25;;;26.13;63.01
21942;BME280;11135;54.192;15.670;2022-08-19T06:57:24;100866.34;;;26.18;62.97
21942;BME280;11135;54.192;15.670;2022-08-19T07:03:30;100873.13;;;26.23;62.92
21942;BME280;11135;54.192;15.670;2022-08-19T07:09:40;100876.44;;;26.27;62.56
21942;BME280;11135;54.192;15.670;2022-08-19T07:15:46;100876.97;;;26.30;62.78
21942;BME280;11135;54.192;15.670;2022-08-19T07:21:50;100877.69;;;26.32;62.86
21942;BME280;11135;54.192;15.670;2022-08-19T07:27:55;100864.59;;;26.33;62.32
21942;BME280;11135;54.192;15.670;2022-08-19T07:34:04;100860.44;;;26.37;62.42
21942;BME280;11135;54.192;15.670;2022-08-19T07:40:10;100860.06;;;26.40;62.35
21942;BME280;11135;54.192;15.670;2022-08-19T07:46:15;100877.53;;;26.42;62.68
21942;BME280;11135;54.192;15.670;2022-08-19T07:52:20;100881.72;;;26.46;62.54
21942;BME280;11135;54.192;15.670;2022-08-19T07:58:24;100877.00;;;26.47;62.76
21942;BME280;11135;54.192;15.670;2022-08-19T08:04:28;100872.13;;;26.49;62.21
21942;BME280;11135;54.192;15.670;2022-08-19T08:10:50;100883.09;;;26.50;62.13
21942;BME280;11135;54.192;15.670;2022-08-19T08:16:57;100883.63;;;26.54;61.93
21942;BME280;11135;54.192;15.670;2022-08-19T08:23:01;100876.66;;;26.58;61.90
21942;BME280;11135;54.192;15.670;2022-08-19T08:29:24;100875.44;;;26.60;61.71
21942;BME280;11135;54.192;15.670;2022-08-19T08:35:36;100875.94;;;26.64;61.38
21942;BME280;11135;54.192;15.670;2022-08-19T08:41:46;100862.84;;;26.64;61.53
21942;BME280;11135;54.192;15.670;2022-08-19T08:47:56;100864.78;;;26.64;61.42
21942;BME280;11135;54.192;15.670;2022-08-19T08:54:05;100868.09;;;26.68;61.19
21942;BME280;11135;54.192;15.670;2022-08-19T09:00:18;100867.94;;;26.69;61.33
21942;BME280;11135;54.192;15.670;2022-08-19T09:06:31;100867.56;;;26.72;61.16
21942;BME280;11135;54.192;15.670;2022-08-19T09:12:41;100868.44;;;26.73;61.25
21942;BME280;11135;54.192;15.670;2022-08-19T09:18:50;100870.19;;;26.74;61.15
21942;BME280;11135;54.192;15.670;2022-08-19T09:24:57;100856.41;;;26.72;61.39
21942;BME280;11135;54.192;15.670;2022-08-19T09:31:00;100855.53;;;26.72;61.96
21942;BME280;11135;54.192;15.670;2022-08-19T09:37:04;100863.03;;;26.71;62.26
21942;BME280;11135;54.192;15.670;2022-08-19T09:43:10;100860.59;;;26.68;62.67
21942;BME280;11135;54.192;15.670;2022-08-19T09:49:15;100854.31;;;26.66;62.86
21942;BME280;11135;54.192;15.670;2022-08-19T09:55:19;100841.25;;;26.67;63.83
21942;BME280;11135;54.192;15.670;2022-08-19T10:01:29;100852.91;;;26.54;64.40
21942;BME280;11135;54.192;15.670;2022-08-19T10:07:33;100834.78;;;26.58;64.49
21942;BME280;11135;54.192;15.670;2022-08-19T10:13:37;100854.50;;;26.56;65.26
21942;BME280;11135;54.192;15.670;2022-08-19T10:19:42;100860.59;;;26.60;64.74
21942;BME280;11135;54.192;15.670;2022-08-19T10:25:59;100852.06;;;26.61;65.47
21942;BME280;11135;54.192;15.670;2022-08-19T10:32:05;100865.81;;;26.63;64.47
21942;BME280;11135;54.192;15.670;2022-08-19T10:38:12;100855.34;;;26.65;64.90
21942;BME280;11135;54.192;15.670;2022-08-19T10:44:16;100879.28;;;26.59;64.77
21942;BME280;11135;54.192;15.670;2022-08-19T10:50:20;100882.06;;;26.51;65.90
21942;BME280;11135;54.192;15.670;2022-08-19T10:56:44;100878.25;;;26.44;67.62
21942;BME280;11135;54.192;15.670;2022-08-19T11:02:58;100855.38;;;26.49;68.88
21942;BME280;11135;54.192;15.670;2022-08-19T11:09:03;100841.41;;;26.49;69.58
21942;BME280;11135;54.192;15.670;2022-08-19T11:15:09;100823.25;;;26.53;70.07
21942;BME280;11135;54.192;15.670;2022-08-19T11:21:15;100811.44;;;26.43;70.49
21942;BME280;11135;54.192;15.670;2022-08-19T11:27:21;100821.72;;;26.42;70.03
21942;BME280;11135;54.192;15.670;2022-08-19T11:33:26;100848.03;;;26.40;69.26
21942;BME280;11135;54.192;15.670;2022-08-19T11:39:31;100857.94;;;26.26;69.31
21942;BME280;11135;54.192;15.670;2022-08-19T11:45:35;100890.19;;;25.96;70.94
21942;BME280;11135;54.192;15.670;2022-08-19T11:51:42;100820.81;;;26.17;70.30
21942;BME280;11135;54.192;15.670;2022-08-19T11:57:46;100795.00;;;26.23;70.14
21942;BME280;11135;54.192;15.670;2022-08-19T12:03:51;100789.25;;;26.41;69.24
21942;BME280;11135;54.192;15.670;2022-08-19T12:09:57;100779.81;;;26.50;69.05
21942;BME280;11135;54.192;15.670;2022-08-19T12:16:07;100776.16;;;26.58;69.26
21942;BME280;11135;54.192;15.670;2022-08-19T12:22:11;100766.22;;;26.55;69.23
21942;BME280;11135;54.192;15.670;2022-08-19T12:28:17;100768.84;;;26.49;69.01
21942;BME280;11135;54.192;15.670;2022-08-19T12:34:20;100764.06;;;26.74;67.44
21942;BME280;11135;54.192;15.670;2022-08-19T12:40:24;100772.91;;;26.93;66.44
21942;BME280;11135;54.192;15.670;2022-08-19T12:46:30;100765.06;;;27.05;65.65
21942;BME280;11135;54.192;15.670;2022-08-19T12:52:35;100759.41;;;27.13;65.63
21942;BME280;11135;54.192;15.670;2022-08-19T12:58:40;100759.00;;;27.25;65.34
21942;BME280;11135;54.192;15.670;2022-08-19T13:04:53;100748.78;;;27.40;64.94
21942;BME280;11135;54.192;15.670;2022-08-19T13:11:05;100745.44;;;27.44;63.77
21942;BME280;11135;54.192;15.670;2022-08-19T13:17:11;100739.25;;;27.57;63.29
21942;BME280;11135;54.192;15.670;2022-08-19T13:23:17;100736.56;;;27.64;62.87
21942;BME280;11135;54.192;15.670;2022-08-19T13:29:21;100736.56;;;27.64;62.87
21942;BME280;11135;54.192;15.670;2022-08-19T13:35:48;100744.97;;;28.32;61.45
21942;BME280;11135;54.192;15.670;2022-08-19T13:41:55;100739.03;;;27.36;63.28
21942;BME280;11135;54.192;15.670;2022-08-19T13:48:01;100718.63;;;27.27;64.00
21942;BME280;11135;54.192;15.670;2022-08-19T13:54:10;100705.53;;;27.28;63.99
21942;BME280;11135;54.192;15.670;2022-08-19T14:00:17;100697.47;;;27.33;64.00
21942;BME280;11135;54.192;15.670;2022-08-19T14:06:21;100693.47;;;27.27;64.06
21942;BME280;11135;54.192;15.670;2022-08-19T14:12:25;100691.41;;;27.29;64.24
21942;BME280;11135;54.192;15.670;2022-08-19T14:18:31;100671.09;;;27.35;65.27
21942;BME280;11135;54.192;15.670;2022-08-19T14:24:36;100653.69;;;27.25;64.96
21942;BME280;11135;54.192;15.670;2022-08-19T14:30:40;100666.41;;;27.28;66.29
21942;BME280;11135;54.192;15.670;2022-08-19T14:36:47;100679.59;;;27.19;65.93
21942;BME280;11135;54.192;15.670;2022-08-19T14:42:51;100688.84;;;27.19;65.66
21942;BME280;11135;54.192;15.670;2022-08-19T14:48:58;100685.72;;;27.14;65.64
21942;BME280;11135;54.192;15.670;2022-08-19T14:55:11;100692.34;;;27.13;65.83
21942;BME280;11135;54.192;15.670;2022-08-19T15:01:17;100709.00;;;27.07;65.83
21942;BME280;11135;54.192;15.670;2022-08-19T15:07:22;100745.31;;;26.90;66.69
21942;BME280;11135;54.192;15.670;2022-08-19T15:13:32;100687.53;;;26.91;68.91
21942;BME280;11135;54.192;15.670;2022-08-19T15:19:35;100671.50;;;26.93;68.74
21942;BME280;11135;54.192;15.670;2022-08-19T15:25:39;100650.88;;;26.94;68.83
21942;BME280;11135;54.192;15.670;2022-08-19T15:31:44;100655.84;;;26.76;70.28
21942;BME280;11135;54.192;15.670;2022-08-19T15:37:50;100652.31;;;26.51;71.65
21942;BME280;11135;54.192;15.670;2022-08-19T15:43:57;100672.38;;;26.54;71.54
21942;BME280;11135;54.192;15.670;2022-08-19T15:50:04;100669.31;;;26.72;69.85
21942;BME280;11135;54.192;15.670;2022-08-19T15:56:12;100679.25;;;26.75;68.64
21942;BME280;11135;54.192;15.670;2022-08-19T16:02:16;100689.94;;;26.63;68.81
21942;BME280;11135;54.192;15.670;2022-08-19T16:08:39;100697.88;;;26.43;69.67
21942;BME280;11135;54.192;15.670;2022-08-19T16:14:50;100703.28;;;26.12;70.77
21942;BME280;11135;54.192;15.670;2022-08-19T16:20:54;100682.56;;;26.07;70.69
21942;BME280;11135;54.192;15.670;2022-08-19T16:26:59;100692.63;;;26.24;69.45
21942;BME280;11135;54.192;15.670;2022-08-19T16:33:03;100691.81;;;25.99;70.86
21942;BME280;11135;54.192;15.670;2022-08-19T16:39:07;100699.50;;;26.05;71.52
21942;BME280;11135;54.192;15.670;2022-08-19T16:45:12;100706.63;;;26.08;72.04
21942;BME280;11135;54.192;15.670;2022-08-19T16:51:16;100695.97;;;26.03;72.52
21942;BME280;11135;54.192;15.670;2022-08-19T16:57:20;100702.41;;;26.03;100.00
21942;BME280;11135;54.192;15.670;2022-08-19T17:03:26;32399.91;;;-145.26;72.45
21942;BME280;11135;54.192;15.670;2022-08-19T17:09:37;100699.66;;;25.95;72.23
21942;BME280;11135;54.192;15.670;2022-08-19T17:15:42;100712.72;;;26.03;71.72
21942;BME280;11135;54.192;15.670;2022-08-19T17:21:47;100709.94;;;25.87;70.80
21942;BME280;11135;54.192;15.670;2022-08-19T17:27:51;100722.13;;;25.77;69.85
21942;BME280;11135;54.192;15.670;2022-08-19T17:33:55;100716.91;;;25.74;70.75
21942;BME280;11135;54.192;15.670;2022-08-19T17:40:02;100715.34;;;25.72;70.54
21942;BME280;11135;54.192;15.670;2022-08-19T17:46:06;59315.84;;;-145.26;100.00
21942;BME280;11135;54.192;15.670;2022-08-19T17:52:12;59315.84;;;-145.26;100.00
21942;BME280;11135;54.192;15.670;2022-08-19T17:58:17;59315.84;;;-145.26;100.00
21942;BME280;11135;54.192;15.670;2022-08-19T18:04:24;59315.84;;;-145.26;100.00
21942;BME280;11135;54.192;15.670;2022-08-19T18:10:30;59315.84;;;-145.26;100.00
21942;BME280;11135;54.192;15.670;2022-08-19T18:16:37;59315.84;;;-145.26;100.00
21942;BME280;11135;54.192;15.670;2022-08-19T18:22:43;59315.84;;;-145.26;100.00
21942;BME280;11135;54.192;15.670;2022-08-19T18:28:46;59315.84;;;-145.26;100.00
21942;BME280;11135;54.192;15.670;2022-08-19T18:34:54;59315.84;;;-145.26;100.00
21942;BME280;11135;54.192;15.670;2022-08-19T18:40:59;59315.84;;;-145.26;100.00
21942;BME280;11135;54.192;15.670;2022-08-19T18:47:21;59315.84;;;-145.26;100.00
21942;BME280;11135;54.192;15.670;2022-08-19T18:53:45;59315.84;;;-145.26;100.00
21942;BME280;11135;54.192;15.670;2022-08-19T18:59:49;59315.84;;;-145.26;100.00
21942;BME280;11135;54.192;15.670;2022-08-19T19:05:54;59315.84;;;-145.26;100.00
21942;BME280;11135;54.192;15.670;2022-08-19T19:12:01;59315.84;;;-145.26;100.00
21942;BME280;11135;54.192;15.670;2022-08-19T19:18:05;59315.84;;;-145.26;100.00
21942;BME280;11135;54.192;15.670;2022-08-19T19:24:10;59315.84;;;-145.26;100.00
21942;BME280;11135;54.192;15.670;2022-08-19T19:30:16;59315.84;;;-145.26;100.00
21942;BME280;11135;54.192;15.670;2022-08-19T19:36:21;59315.84;;;-145.26;100.00
21942;BME280;11135;54.192;15.670;2022-08-19T19:42:25;59315.84;;;-145.26;100.00
21942;BME280;11135;54.192;15.670;2022-08-19T19:48:30;59315.84;;;-145.26;100.00
21942;BME280;11135;54.192;15.670;2022-08-19T19:54:34;59315.84;;;-145.26;100.00
21942;BME280;11135;54.192;15.670;2022-08-19T20:00:39;59315.84;;;-145.26;100.00
21942;BME280;11135;54.192;15.670;2022-08-19T20:06:45;59315.84;;;-145.26;100.00
21942;BME280;11135;54.192;15.670;2022-08-19T20:12:51;59315.84;;;-145.26;100.00
21942;BME280;11135;54.192;15.670;2022-08-19T20:18:57;59315.84;;;-145.26;100.00
21942;BME280;11135;54.192;15.670;2022-08-19T20:25:02;59315.84;;;-145.26;100.00
21942;BME280;11135;54.192;15.670;2022-08-19T20:31:09;59315.84;;;-145.26;100.00
21942;BME280;11135;54.192;15.670;2022-08-19T20:37:12;59315.84;;;-145.26;100.00
21942;BME280;11135;54.192;15.670;2022-08-19T20:43:17;59315.84;;;-145.26;100.00
21942;BME280;11135;54.192;15.670;2022-08-19T20:49:22;59315.84;;;-145.26;100.00
21942;BME280;11135;54.192;15.670;2022-08-19T20:55:28;59315.84;;;-145.26;100.00
21942;BME280;11135;54.192;15.670;2022-08-19T21:01:33;59315.84;;;-145.26;100.00
21942;BME280;11135;54.192;15.670;2022-08-19T21:07:37;59315.84;;;-145.26;100.00
21942;BME280;11135;54.192;15.670;2022-08-19T21:13:40;59315.84;;;-145.26;100.00
21942;BME280;11135;54.192;15.670;2022-08-19T21:19:45;59315.84;;;-145.26;100.00
21942;BME280;11135;54.192;15.670;2022-08-19T21:25:50;59315.84;;;-145.26;100.00
21942;BME280;11135;54.192;15.670;2022-08-19T21:31:55;59315.84;;;-145.26;100.00
21942;BME280;11135;54.192;15.670;2022-08-19T21:38:00;59315.84;;;-145.26;100.00
21942;BME280;11135;54.192;15.670;2022-08-19T21:44:04;59315.84;;;-145.26;100.00
21942;BME280;11135;54.192;15.670;2022-08-19T21:50:09;59315.84;;;-145.26;100.00
21942;BME280;11135;54.192;15.670;2022-08-19T21:56:14;59315.84;;;-145.26;100.00
21942;BME280;11135;54.192;15.670;2022-08-19T22:02:19;59315.84;;;-145.26;100.00
21942;BME280;11135;54.192;15.670;2022-08-19T22:08:23;59315.84;;;-145.26;100.00
21942;BME280;11135;54.192;15.670;2022-08-19T22:14:29;59315.84;;;-145.26;100.00
21942;BME280;11135;54.192;15.670;2022-08-19T22:20:34;59315.84;;;-145.26;100.00
21942;BME280;11135;54.192;15.670;2022-08-19T22:26:38;59315.84;;;-145.26;100.00
21942;BME280;11135;54.192;15.670;2022-08-19T22:32:45;59315.84;;;-145.26;100.00
21942;BME280;11135;54.192;15.670;2022-08-19T22:38:57;59315.84;;;-145.26;100.00
21942;BME280;11135;54.192;15.670;2022-08-19T22:45:00;59315.84;;;-145.26;100.00
21942;BME280;11135;54.192;15.670;2022-08-19T22:51:06;59315.84;;;-145.26;100.00
21942;BME280;11135;54.192;15.670;2022-08-19T22:57:29;59315.84;;;-145.26;100.00
21942;BME280;11135;54.192;15.670;2022-08-19T23:03:33;59315.84;;;-145.26;100.00
21942;BME280;11135;54.192;15.670;2022-08-19T23:09:38;59315.84;;;-145.26;100.00
21942;BME280;11135;54.192;15.670;2022-08-19T23:15:44;59315.84;;;-145.26;100.00
21942;BME280;11135;54.192;15.670;2022-08-19T23:21:48;59315.84;;;-145.26;100.00
21942;BME280;11135;54.192;15.670;2022-08-19T23:27:55;59315.84;;;-145.26;100.00
21942;BME280;11135;54.192;15.670;2022-08-19T23:34:16;59315.84;;;-145.26;100.00
21942;BME280;11135;54.192;15.670;2022-08-19T23:40:19;59315.84;;;-145.26;100.00
21942;BME280;11135;54.192;15.670;2022-08-19T23:46:25;59315.84;;;-145.26;100.00
21942;BME280;11135;54.192;15.670;2022-08-19T23:52:29;59315.84;;;-145.26;100.00
21942;BME280;11135;54.192;15.670;2022-08-19T23:58:35;59315.84;;;-145.26;100.00
